sensor_id;sensor_type;location;lat;lon;timestamp;pressure;altitude;pressure_sealevel;temperature;humidity
52653;BME280;39353;42.864;12.014;2023-07-13T00:01:06;97470.71;;;28.40;36.41
52653;BME280;39353;42.864;12.014;2023-07-13T00:03:40;97465.23;;;28.50;35.73
52653;BME280;39353;42.864;12.014;2023-07-13T00:06:09;97466.72;;;28.57;35.56
52653;BME280;39353;42.864;12.014;2023-07-13T00:08:36;97469.30;;;28.61;35.64
52653;BME280;39353;42.864;12.014;2023-07-13T00:11:05;97463.50;;;28.62;35.39
52653;BME280;39353;42.864;12.014;2023-07-13T00:13:47;97459.36;;;28.66;35.34
52653;BME280;39353;42.864;12.014;2023-07-13T00:16:28;97452.52;;;28.67;35.52
52653;BME280;39353;42.864;12.014;2023-07-13T00:19:10;97459.63;;;28.68;35.29
52653;BME280;39353;42.864;12.014;2023-07-13T00:21:51;97466.65;;;28.67;35.23
52653;BME280;39353;42.864;12.014;2023-07-13T00:24:22;97471.01;;;28.69;35.35
52653;BME280;39353;42.864;12.014;2023-07-13T00:26:51;97467.69;;;28.70;35.60
52653;BME280;39353;42.864;12.014;2023-07-13T00:29:32;97465.60;;;28.70;35.72
52653;BME280;39353;42.864;12.014;2023-07-13T00:32:04;97472.55;;;28.77;35.53
52653;BME280;39353;42.864;12.014;2023-07-13T00:34:46;97469.24;;;28.78;35.66
52653;BME280;39353;42.864;12.014;2023-07-13T00:37:14;97468.52;;;28.74;35.78
52653;BME280;39353;42.864;12.014;2023-07-13T00:39:41;97469.36;;;28.78;35.84
52653;BME280;39353;42.864;12.014;2023-07-13T00:42:09;97467.54;;;28.79;36.15
52653;BME280;39353;42.864;12.014;2023-07-13T00:47:52;97455.55;;;28.77;35.97
52653;BME280;39353;42.864;12.014;2023-07-13T00:50:32;97454.61;;;28.76;36.09
52653;BME280;39353;42.864;12.014;2023-07-13T00:53:15;97455.66;;;28.77;36.24
52653;BME280;39353;42.864;12.014;2023-07-13T00:55:57;97459.36;;;28.75;36.36
52653;BME280;39353;42.864;12.014;2023-07-13T00:58:38;97453.06;;;28.73;36.37
52653;BME280;39353;42.864;12.014;2023-07-13T01:01:05;97444.13;;;28.75;36.50
52653;BME280;39353;42.864;12.014;2023-07-13T01:03:34;97445.11;;;28.77;36.45
52653;BME280;39353;42.864;12.014;2023-07-13T01:06:03;97441.80;;;28.78;36.32
52653;BME280;39353;42.864;12.014;2023-07-13T01:08:32;97449.31;;;28.78;36.20
52653;BME280;39353;42.864;12.014;2023-07-13T01:11:21;97449.75;;;28.77;36.19
52653;BME280;39353;42.864;12.014;2023-07-13T01:13:51;97443.85;;;28.77;36.25
52653;BME280;39353;42.864;12.014;2023-07-13T01:16:26;97445.94;;;28.75;36.24
52653;BME280;39353;42.864;12.014;2023-07-13T01:19:25;97439.27;;;28.74;36.13
52653;BME280;39353;42.864;12.014;2023-07-13T01:22:22;97439.44;;;28.73;36.05
52653;BME280;39353;42.864;12.014;2023-07-13T01:24:54;97439.36;;;28.72;35.96
52653;BME280;39353;42.864;12.014;2023-07-13T01:27:36;97446.10;;;28.71;36.05
52653;BME280;39353;42.864;12.014;2023-07-13T01:30:04;97448.38;;;28.70;36.08
52653;BME280;39353;42.864;12.014;2023-07-13T01:32:49;97445.00;;;28.69;36.00
52653;BME280;39353;42.864;12.014;2023-07-13T01:35:18;97434.34;;;28.68;36.01
52653;BME280;39353;42.864;12.014;2023-07-13T01:37:59;97431.65;;;28.64;36.09
52653;BME280;39353;42.864;12.014;2023-07-13T01:40:42;97420.84;;;28.59;36.05
52653;BME280;39353;42.864;12.014;2023-07-13T01:43:23;97418.56;;;28.60;36.09
52653;BME280;39353;42.864;12.014;2023-07-13T01:46:04;97416.27;;;28.55;36.39
52653;BME280;39353;42.864;12.014;2023-07-13T01:48:31;97430.02;;;28.55;36.36
52653;BME280;39353;42.864;12.014;2023-07-13T01:51:00;97437.02;;;28.55;36.52
52653;BME280;39353;42.864;12.014;2023-07-13T01:53:41;97439.66;;;28.57;36.45
52653;BME280;39353;42.864;12.014;2023-07-13T01:56:22;97448.73;;;28.54;36.74
52653;BME280;39353;42.864;12.014;2023-07-13T01:59:05;97453.09;;;28.54;36.80
52653;BME280;39353;42.864;12.014;2023-07-13T02:01:45;97454.02;;;28.54;36.74
52653;BME280;39353;42.864;12.014;2023-07-13T02:04:26;97454.73;;;28.61;36.70
52653;BME280;39353;42.864;12.014;2023-07-13T02:07:09;97449.98;;;28.63;36.50
52653;BME280;39353;42.864;12.014;2023-07-13T02:09:38;97451.69;;;28.62;36.43
52653;BME280;39353;42.864;12.014;2023-07-13T02:12:06;97447.52;;;28.58;36.50
52653;BME280;39353;42.864;12.014;2023-07-13T02:14:34;97439.62;;;28.54;36.64
52653;BME280;39353;42.864;12.014;2023-07-13T02:17:15;97438.06;;;28.49;36.72
52653;BME280;39353;42.864;12.014;2023-07-13T02:19:56;97429.27;;;28.44;36.82
52653;BME280;39353;42.864;12.014;2023-07-13T02:22:37;97417.18;;;28.34;36.97
52653;BME280;39353;42.864;12.014;2023-07-13T02:25:05;97419.16;;;28.34;37.14
52653;BME280;39353;42.864;12.014;2023-07-13T02:27:33;97409.52;;;28.32;37.14
52653;BME280;39353;42.864;12.014;2023-07-13T02:30:15;97403.83;;;28.30;37.30
52653;BME280;39353;42.864;12.014;2023-07-13T02:32:57;97398.70;;;28.28;37.37
52653;BME280;39353;42.864;12.014;2023-07-13T02:35:25;97398.92;;;28.24;37.21
52653;BME280;39353;42.864;12.014;2023-07-13T02:38:06;97400.69;;;28.22;37.36
52653;BME280;39353;42.864;12.014;2023-07-13T02:40:47;97405.98;;;28.21;37.20
52653;BME280;39353;42.864;12.014;2023-07-13T02:43:29;97405.73;;;28.20;37.41
52653;BME280;39353;42.864;12.014;2023-07-13T02:46:00;97410.39;;;28.22;37.63
52653;BME280;39353;42.864;12.014;2023-07-13T02:48:47;97407.30;;;28.24;37.59
52653;BME280;39353;42.864;12.014;2023-07-13T02:51:14;97408.14;;;28.24;37.54
52653;BME280;39353;42.864;12.014;2023-07-13T02:53:55;97408.64;;;28.23;37.41
52653;BME280;39353;42.864;12.014;2023-07-13T02:56:40;97410.02;;;28.21;37.66
52653;BME280;39353;42.864;12.014;2023-07-13T02:59:21;97412.56;;;28.20;37.70
52653;BME280;39353;42.864;12.014;2023-07-13T03:02:02;97415.92;;;28.19;37.70
52653;BME280;39353;42.864;12.014;2023-07-13T03:04:44;97422.23;;;28.18;37.65
52653;BME280;39353;42.864;12.014;2023-07-13T03:07:26;97425.92;;;28.18;37.67
52653;BME280;39353;42.864;12.014;2023-07-13T03:10:08;97427.74;;;28.17;37.88
52653;BME280;39353;42.864;12.014;2023-07-13T03:12:55;97432.02;;;28.21;37.78
52653;BME280;39353;42.864;12.014;2023-07-13T03:15:25;97440.46;;;28.23;37.69
52653;BME280;39353;42.864;12.014;2023-07-13T03:17:52;97446.17;;;28.17;37.71
52653;BME280;39353;42.864;12.014;2023-07-13T03:20:20;97446.70;;;28.12;37.57
52653;BME280;39353;42.864;12.014;2023-07-13T03:23:01;97443.75;;;28.05;37.52
52653;BME280;39353;42.864;12.014;2023-07-13T03:25:31;97438.98;;;28.12;37.50
52653;BME280;39353;42.864;12.014;2023-07-13T03:28:15;97432.48;;;28.17;37.43
52653;BME280;39353;42.864;12.014;2023-07-13T03:30:42;97427.08;;;28.17;37.19
52653;BME280;39353;42.864;12.014;2023-07-13T03:33:11;97427.52;;;28.17;37.25
52653;BME280;39353;42.864;12.014;2023-07-13T03:35:40;97434.80;;;28.18;37.35
52653;BME280;39353;42.864;12.014;2023-07-13T03:38:08;97441.20;;;28.19;37.40
52653;BME280;39353;42.864;12.014;2023-07-13T03:40:50;97441.80;;;28.18;37.22
52653;BME280;39353;42.864;12.014;2023-07-13T03:43:19;97438.21;;;28.13;37.42
52653;BME280;39353;42.864;12.014;2023-07-13T03:46:02;97434.14;;;28.12;37.28
52653;BME280;39353;42.864;12.014;2023-07-13T03:48:45;97433.87;;;28.10;37.54
52653;BME280;39353;42.864;12.014;2023-07-13T03:51:15;97432.95;;;28.06;37.33
52653;BME280;39353;42.864;12.014;2023-07-13T03:53:57;97431.94;;;28.03;37.48
52653;BME280;39353;42.864;12.014;2023-07-13T03:56:39;97420.86;;;28.01;37.60
52653;BME280;39353;42.864;12.014;2023-07-13T03:59:27;97422.95;;;27.99;37.61
52653;BME280;39353;42.864;12.014;2023-07-13T04:02:08;97423.45;;;27.97;37.88
52653;BME280;39353;42.864;12.014;2023-07-13T04:04:50;97425.98;;;27.94;38.06
52653;BME280;39353;42.864;12.014;2023-07-13T04:07:31;97429.06;;;27.95;37.95
52653;BME280;39353;42.864;12.014;2023-07-13T04:10:00;97433.10;;;27.92;38.11
52653;BME280;39353;42.864;12.014;2023-07-13T04:12:42;97437.46;;;27.96;38.03
52653;BME280;39353;42.864;12.014;2023-07-13T04:15:23;97441.98;;;27.96;38.01
52653;BME280;39353;42.864;12.014;2023-07-13T04:17:53;97441.83;;;27.93;38.03
52653;BME280;39353;42.864;12.014;2023-07-13T04:20:20;97445.13;;;27.92;38.14
52653;BME280;39353;42.864;12.014;2023-07-13T04:23:03;97441.11;;;27.91;38.17
52653;BME280;39353;42.864;12.014;2023-07-13T04:25:51;97433.65;;;27.87;38.17
52653;BME280;39353;42.864;12.014;2023-07-13T04:28:22;97431.66;;;27.88;38.20
52653;BME280;39353;42.864;12.014;2023-07-13T04:30:54;97434.47;;;27.86;38.08
52653;BME280;39353;42.864;12.014;2023-07-13T04:33:36;97442.34;;;27.81;38.26
52653;BME280;39353;42.864;12.014;2023-07-13T04:36:08;97445.88;;;27.80;38.42
52653;BME280;39353;42.864;12.014;2023-07-13T04:38:36;97453.16;;;27.82;38.56
52653;BME280;39353;42.864;12.014;2023-07-13T04:41:21;97449.57;;;27.84;38.52
52653;BME280;39353;42.864;12.014;2023-07-13T04:43:50;97454.27;;;27.85;38.64
52653;BME280;39353;42.864;12.014;2023-07-13T04:46:31;97450.35;;;27.85;38.72
52653;BME280;39353;42.864;12.014;2023-07-13T04:48:59;97453.10;;;27.85;38.73
52653;BME280;39353;42.864;12.014;2023-07-13T04:51:26;97458.68;;;27.88;38.77
52653;BME280;39353;42.864;12.014;2023-07-13T04:53:54;97469.60;;;27.88;38.79
52653;BME280;39353;42.864;12.014;2023-07-13T04:56:35;97465.70;;;27.89;38.89
52653;BME280;39353;42.864;12.014;2023-07-13T04:59:05;97466.80;;;27.91;39.07
52653;BME280;39353;42.864;12.014;2023-07-13T05:01:45;97469.72;;;27.94;39.07
52653;BME280;39353;42.864;12.014;2023-07-13T05:04:13;97465.53;;;27.96;39.25
52653;BME280;39353;42.864;12.014;2023-07-13T05:06:40;97458.58;;;28.01;39.33
52653;BME280;39353;42.864;12.014;2023-07-13T05:09:08;97461.84;;;28.05;39.12
52653;BME280;39353;42.864;12.014;2023-07-13T05:11:49;97467.42;;;28.08;39.15
52653;BME280;39353;42.864;12.014;2023-07-13T05:14:16;97468.58;;;28.08;39.28
52653;BME280;39353;42.864;12.014;2023-07-13T05:16:43;97468.69;;;28.05;39.33
52653;BME280;39353;42.864;12.014;2023-07-13T05:19:24;97464.45;;;28.07;39.53
52653;BME280;39353;42.864;12.014;2023-07-13T05:22:07;97459.37;;;28.10;39.93
52653;BME280;39353;42.864;12.014;2023-07-13T05:24:35;97462.75;;;28.12;40.64
52653;BME280;39353;42.864;12.014;2023-07-13T05:27:02;97461.77;;;28.15;41.11
52653;BME280;39353;42.864;12.014;2023-07-13T05:29:29;97463.38;;;28.13;40.76
52653;BME280;39353;42.864;12.014;2023-07-13T05:31:56;97463.15;;;28.16;41.30
52653;BME280;39353;42.864;12.014;2023-07-13T05:34:23;97462.94;;;28.14;40.97
52653;BME280;39353;42.864;12.014;2023-07-13T05:36:51;97461.61;;;28.20;41.02
52653;BME280;39353;42.864;12.014;2023-07-13T05:39:20;97459.16;;;28.23;41.02
52653;BME280;39353;42.864;12.014;2023-07-13T05:42:02;97463.31;;;28.24;40.75
52653;BME280;39353;42.864;12.014;2023-07-13T05:44:30;97462.92;;;28.23;40.52
52653;BME280;39353;42.864;12.014;2023-07-13T05:46:57;97466.57;;;28.26;40.57
52653;BME280;39353;42.864;12.014;2023-07-13T05:49:39;97473.08;;;28.25;40.38
52653;BME280;39353;42.864;12.014;2023-07-13T05:52:20;97475.45;;;28.24;40.50
52653;BME280;39353;42.864;12.014;2023-07-13T05:54:47;97473.57;;;28.24;40.27
52653;BME280;39353;42.864;12.014;2023-07-13T05:57:30;97474.13;;;28.24;40.40
52653;BME280;39353;42.864;12.014;2023-07-13T06:00:12;97476.06;;;28.27;40.37
52653;BME280;39353;42.864;12.014;2023-07-13T06:02:42;97471.98;;;28.33;40.50
52653;BME280;39353;42.864;12.014;2023-07-13T06:05:11;97468.72;;;28.40;40.76
52653;BME280;39353;42.864;12.014;2023-07-13T06:07:38;97465.90;;;28.41;41.07
52653;BME280;39353;42.864;12.014;2023-07-13T06:10:06;97467.29;;;28.44;41.37
52653;BME280;39353;42.864;12.014;2023-07-13T06:12:47;97467.63;;;28.44;41.81
52653;BME280;39353;42.864;12.014;2023-07-13T06:15:14;97472.45;;;28.50;41.92
52653;BME280;39353;42.864;12.014;2023-07-13T06:17:55;97466.71;;;28.57;41.97
52653;BME280;39353;42.864;12.014;2023-07-13T06:20:36;97474.05;;;28.62;42.41
52653;BME280;39353;42.864;12.014;2023-07-13T06:23:17;97469.25;;;28.61;42.24
52653;BME280;39353;42.864;12.014;2023-07-13T06:26:00;97465.60;;;28.66;42.11
52653;BME280;39353;42.864;12.014;2023-07-13T06:28:29;97470.23;;;28.70;42.01
52653;BME280;39353;42.864;12.014;2023-07-13T06:30:58;97473.61;;;28.69;42.14
52653;BME280;39353;42.864;12.014;2023-07-13T06:33:40;97477.64;;;28.65;41.99
52653;BME280;39353;42.864;12.014;2023-07-13T06:36:09;97483.45;;;28.63;41.73
52653;BME280;39353;42.864;12.014;2023-07-13T06:38:51;97484.98;;;28.65;42.05
52653;BME280;39353;42.864;12.014;2023-07-13T06:41:18;97476.20;;;28.66;42.17
52653;BME280;39353;42.864;12.014;2023-07-13T06:43:59;97472.06;;;28.70;42.35
52653;BME280;39353;42.864;12.014;2023-07-13T06:46:40;97466.77;;;28.75;42.28
52653;BME280;39353;42.864;12.014;2023-07-13T06:49:09;97457.43;;;28.70;42.42
52653;BME280;39353;42.864;12.014;2023-07-13T06:51:37;97459.14;;;28.67;42.64
52653;BME280;39353;42.864;12.014;2023-07-13T06:54:04;97453.39;;;28.64;42.54
52653;BME280;39353;42.864;12.014;2023-07-13T06:56:45;97447.94;;;28.61;42.46
52653;BME280;39353;42.864;12.014;2023-07-13T06:59:26;97457.55;;;28.56;42.98
52653;BME280;39353;42.864;12.014;2023-07-13T07:02:10;97457.94;;;28.55;43.19
52653;BME280;39353;42.864;12.014;2023-07-13T07:04:51;97460.52;;;28.57;43.24
52653;BME280;39353;42.864;12.014;2023-07-13T07:07:32;97448.49;;;28.58;43.18
52653;BME280;39353;42.864;12.014;2023-07-13T07:10:13;97445.40;;;28.58;43.29
52653;BME280;39353;42.864;12.014;2023-07-13T07:12:40;97446.99;;;28.62;43.32
52653;BME280;39353;42.864;12.014;2023-07-13T07:15:09;97452.18;;;28.66;43.50
52653;BME280;39353;42.864;12.014;2023-07-13T07:17:38;97449.53;;;28.68;43.43
52653;BME280;39353;42.864;12.014;2023-07-13T07:20:10;97456.77;;;28.71;43.43
52653;BME280;39353;42.864;12.014;2023-07-13T07:22:53;97461.23;;;28.75;43.45
52653;BME280;39353;42.864;12.014;2023-07-13T07:25:34;97469.80;;;28.78;43.47
52653;BME280;39353;42.864;12.014;2023-07-13T07:28:17;97463.71;;;28.80;43.49
52653;BME280;39353;42.864;12.014;2023-07-13T07:30:46;97458.52;;;28.82;43.73
52653;BME280;39353;42.864;12.014;2023-07-13T07:33:27;97465.77;;;28.85;43.15
52653;BME280;39353;42.864;12.014;2023-07-13T07:36:08;97470.52;;;28.83;42.79
52653;BME280;39353;42.864;12.014;2023-07-13T07:38:35;97457.91;;;28.79;42.51
52653;BME280;39353;42.864;12.014;2023-07-13T07:41:05;97467.48;;;28.75;42.47
52653;BME280;39353;42.864;12.014;2023-07-13T07:43:46;97462.46;;;28.73;42.42
52653;BME280;39353;42.864;12.014;2023-07-13T07:46:28;97451.56;;;28.72;42.61
52653;BME280;39353;42.864;12.014;2023-07-13T07:48:55;97454.45;;;28.74;42.81
52653;BME280;39353;42.864;12.014;2023-07-13T07:51:37;97462.52;;;28.80;42.93
52653;BME280;39353;42.864;12.014;2023-07-13T07:54:19;97465.86;;;28.88;43.17
52653;BME280;39353;42.864;12.014;2023-07-13T07:56:46;97454.41;;;28.93;43.15
52653;BME280;39353;42.864;12.014;2023-07-13T07:59:37;97450.98;;;28.92;43.08
52653;BME280;39353;42.864;12.014;2023-07-13T08:02:06;97446.17;;;28.93;42.98
52653;BME280;39353;42.864;12.014;2023-07-13T08:04:33;97425.36;;;28.90;42.83
52653;BME280;39353;42.864;12.014;2023-07-13T08:07:00;97430.84;;;28.88;42.90
52653;BME280;39353;42.864;12.014;2023-07-13T08:09:43;97456.24;;;28.88;42.75
52653;BME280;39353;42.864;12.014;2023-07-13T08:12:25;97448.40;;;28.88;43.00
52653;BME280;39353;42.864;12.014;2023-07-13T08:15:01;97441.55;;;28.88;42.82
52653;BME280;39353;42.864;12.014;2023-07-13T08:17:29;97462.31;;;28.91;43.16
52653;BME280;39353;42.864;12.014;2023-07-13T08:19:57;97489.41;;;28.97;43.48
52653;BME280;39353;42.864;12.014;2023-07-13T08:22:24;97493.20;;;29.07;43.66
52653;BME280;39353;42.864;12.014;2023-07-13T08:25:11;97488.11;;;29.13;44.45
52653;BME280;39353;42.864;12.014;2023-07-13T08:27:39;97492.84;;;29.16;44.08
52653;BME280;39353;42.864;12.014;2023-07-13T08:30:20;97510.08;;;29.21;44.48
52653;BME280;39353;42.864;12.014;2023-07-13T08:32:50;97503.15;;;29.25;44.24
52653;BME280;39353;42.864;12.014;2023-07-13T08:35:31;97476.87;;;29.30;44.12
52653;BME280;39353;42.864;12.014;2023-07-13T08:38:12;97463.48;;;29.31;44.11
52653;BME280;39353;42.864;12.014;2023-07-13T08:40:41;97466.64;;;29.33;44.62
52653;BME280;39353;42.864;12.014;2023-07-13T08:43:29;97453.92;;;29.33;44.71
52653;BME280;39353;42.864;12.014;2023-07-13T08:49:17;97459.42;;;29.37;44.59
52653;BME280;39353;42.864;12.014;2023-07-13T08:54:51;97387.76;;;29.40;44.39
52653;BME280;39353;42.864;12.014;2023-07-13T08:57:26;97405.27;;;29.43;44.66
52653;BME280;39353;42.864;12.014;2023-07-13T09:00:14;97430.56;;;29.49;45.16
52653;BME280;39353;42.864;12.014;2023-07-13T09:02:59;97445.90;;;29.54;45.17
52653;BME280;39353;42.864;12.014;2023-07-13T09:05:40;97421.86;;;29.58;45.55
52653;BME280;39353;42.864;12.014;2023-07-13T09:08:51;97429.52;;;29.54;45.51
52653;BME280;39353;42.864;12.014;2023-07-13T09:14:44;97431.91;;;29.41;45.88
52653;BME280;39353;42.864;12.014;2023-07-13T09:17:26;97457.41;;;29.35;45.75
52653;BME280;39353;42.864;12.014;2023-07-13T09:22:59;97462.69;;;29.27;46.17
52653;BME280;39353;42.864;12.014;2023-07-13T09:25:33;97501.67;;;29.22;46.43
52653;BME280;39353;42.864;12.014;2023-07-13T09:28:23;97496.70;;;29.24;46.44
52653;BME280;39353;42.864;12.014;2023-07-13T09:33:53;97460.22;;;29.24;47.12
52653;BME280;39353;42.864;12.014;2023-07-13T09:36:34;97434.44;;;29.19;47.68
52653;BME280;39353;42.864;12.014;2023-07-13T09:39:35;97413.38;;;29.21;48.00
52653;BME280;39353;42.864;12.014;2023-07-13T09:42:22;97471.23;;;29.17;48.30
52653;BME280;39353;42.864;12.014;2023-07-13T09:45:03;97473.77;;;29.23;48.46
52653;BME280;39353;42.864;12.014;2023-07-13T09:47:39;97484.25;;;29.26;48.56
52653;BME280;39353;42.864;12.014;2023-07-13T09:50:15;97480.14;;;29.27;48.64
52653;BME280;39353;42.864;12.014;2023-07-13T09:52:48;97481.33;;;29.25;48.90
52653;BME280;39353;42.864;12.014;2023-07-13T09:55:35;97487.42;;;29.22;49.15
52653;BME280;39353;42.864;12.014;2023-07-13T09:58:19;97473.88;;;29.23;49.42
52653;BME280;39353;42.864;12.014;2023-07-13T10:03:35;97485.48;;;29.20;50.74
52653;BME280;39353;42.864;12.014;2023-07-13T10:06:22;97496.27;;;29.29;50.53
52653;BME280;39353;42.864;12.014;2023-07-13T10:08:50;97486.69;;;29.26;50.44
52653;BME280;39353;42.864;12.014;2023-07-13T10:11:24;97488.54;;;29.27;50.45
52653;BME280;39353;42.864;12.014;2023-07-13T10:16:26;97495.38;;;29.36;50.48
52653;BME280;39353;42.864;12.014;2023-07-13T10:19:26;97472.61;;;29.36;50.75
52653;BME280;39353;42.864;12.014;2023-07-13T10:25:20;97476.20;;;29.34;51.89
52653;BME280;39353;42.864;12.014;2023-07-13T10:28:30;97535.29;;;29.34;51.90
52653;BME280;39353;42.864;12.014;2023-07-13T10:31:02;97535.23;;;29.43;52.73
52653;BME280;39353;42.864;12.014;2023-07-13T10:42:59;97454.31;;;29.40;52.02
52653;BME280;39353;42.864;12.014;2023-07-13T10:49:16;97484.54;;;29.24;52.95
52653;BME280;39353;42.864;12.014;2023-07-13T11:01:18;97493.66;;;29.86;54.43
52653;BME280;39353;42.864;12.014;2023-07-13T11:04:00;97507.55;;;29.93;54.77
52653;BME280;39353;42.864;12.014;2023-07-13T11:06:43;97505.84;;;29.98;53.92
52653;BME280;39353;42.864;12.014;2023-07-13T11:09:40;97509.69;;;30.03;53.50
52653;BME280;39353;42.864;12.014;2023-07-13T11:15:03;97490.27;;;29.98;52.32
52653;BME280;39353;42.864;12.014;2023-07-13T11:17:54;97489.98;;;29.88;52.03
52653;BME280;39353;42.864;12.014;2023-07-13T11:20:43;97489.52;;;29.83;52.05
52653;BME280;39353;42.864;12.014;2023-07-13T11:25:39;97485.11;;;29.74;52.35
52653;BME280;39353;42.864;12.014;2023-07-13T11:28:17;97491.70;;;29.68;52.48
52653;BME280;39353;42.864;12.014;2023-07-13T11:31:12;97492.77;;;29.68;52.31
52653;BME280;39353;42.864;12.014;2023-07-13T11:33:58;97491.14;;;29.64;52.28
52653;BME280;39353;42.864;12.014;2023-07-13T11:36:39;97496.60;;;29.65;51.90
52653;BME280;39353;42.864;12.014;2023-07-13T11:39:19;97491.14;;;29.63;51.90
52653;BME280;39353;42.864;12.014;2023-07-13T11:42:07;97493.56;;;29.64;51.92
52653;BME280;39353;42.864;12.014;2023-07-13T11:44:48;97498.13;;;29.66;51.91
52653;BME280;39353;42.864;12.014;2023-07-13T11:47:31;97501.73;;;29.67;51.83
52653;BME280;39353;42.864;12.014;2023-07-13T11:49:59;97511.05;;;29.68;52.03
52653;BME280;39353;42.864;12.014;2023-07-13T11:52:34;97511.98;;;29.73;52.56
52653;BME280;39353;42.864;12.014;2023-07-13T11:55:14;97512.16;;;29.79;52.11
52653;BME280;39353;42.864;12.014;2023-07-13T11:57:50;97511.06;;;29.79;52.11
52653;BME280;39353;42.864;12.014;2023-07-13T12:00:30;97507.10;;;29.83;52.45
52653;BME280;39353;42.864;12.014;2023-07-13T12:03:03;97508.53;;;29.87;52.32
52653;BME280;39353;42.864;12.014;2023-07-13T12:06:00;97502.83;;;29.87;52.52
52653;BME280;39353;42.864;12.014;2023-07-13T12:08:43;97494.97;;;29.89;52.54
52653;BME280;39353;42.864;12.014;2023-07-13T12:11:25;97494.46;;;29.89;52.43
52653;BME280;39353;42.864;12.014;2023-07-13T12:14:10;97500.54;;;29.91;52.46
52653;BME280;39353;42.864;12.014;2023-07-13T12:16:46;97502.97;;;29.91;52.31
52653;BME280;39353;42.864;12.014;2023-07-13T12:19:29;97508.66;;;29.92;52.28
52653;BME280;39353;42.864;12.014;2023-07-13T12:21:59;97511.15;;;29.92;52.13
52653;BME280;39353;42.864;12.014;2023-07-13T12:24:41;97510.14;;;29.94;52.37
52653;BME280;39353;42.864;12.014;2023-07-13T12:27:26;97509.42;;;29.94;52.49
52653;BME280;39353;42.864;12.014;2023-07-13T12:30:03;97517.17;;;29.98;52.39
52653;BME280;39353;42.864;12.014;2023-07-13T12:32:38;97515.19;;;29.96;52.55
52653;BME280;39353;42.864;12.014;2023-07-13T12:35:16;97513.06;;;29.97;52.92
52653;BME280;39353;42.864;12.014;2023-07-13T12:38:00;97514.08;;;29.99;52.57
52653;BME280;39353;42.864;12.014;2023-07-13T12:40:33;97510.02;;;29.99;52.66
52653;BME280;39353;42.864;12.014;2023-07-13T12:43:16;97512.30;;;29.96;52.72
52653;BME280;39353;42.864;12.014;2023-07-13T12:45:59;97513.19;;;29.96;52.66
52653;BME280;39353;42.864;12.014;2023-07-13T12:48:29;97510.59;;;29.97;52.93
52653;BME280;39353;42.864;12.014;2023-07-13T12:51:01;97504.77;;;29.96;52.61
52653;BME280;39353;42.864;12.014;2023-07-13T12:53:30;97500.85;;;29.98;52.55
52653;BME280;39353;42.864;12.014;2023-07-13T12:56:02;97502.61;;;30.01;52.44
52653;BME280;39353;42.864;12.014;2023-07-13T12:58:47;97500.34;;;30.01;52.30
52653;BME280;39353;42.864;12.014;2023-07-13T13:01:34;97501.73;;;30.01;52.13
52653;BME280;39353;42.864;12.014;2023-07-13T13:04:04;97494.64;;;30.02;52.18
52653;BME280;39353;42.864;12.014;2023-07-13T13:07:01;97495.98;;;30.01;51.87
52653;BME280;39353;42.864;12.014;2023-07-13T13:09:42;97498.95;;;30.02;51.93
52653;BME280;39353;42.864;12.014;2023-07-13T13:12:10;97493.36;;;30.02;52.08
52653;BME280;39353;42.864;12.014;2023-07-13T13:14:38;97482.82;;;30.00;52.19
52653;BME280;39353;42.864;12.014;2023-07-13T13:17:24;97476.06;;;30.00;52.19
52653;BME280;39353;42.864;12.014;2023-07-13T13:20:19;97471.08;;;30.00;52.15
52653;BME280;39353;42.864;12.014;2023-07-13T13:22:47;97474.01;;;30.01;52.16
52653;BME280;39353;42.864;12.014;2023-07-13T13:25:31;97475.86;;;30.05;51.85
52653;BME280;39353;42.864;12.014;2023-07-13T13:27:58;97474.65;;;30.09;51.75
52653;BME280;39353;42.864;12.014;2023-07-13T13:30:41;97475.02;;;30.11;51.80
52653;BME280;39353;42.864;12.014;2023-07-13T13:33:22;97479.57;;;30.11;52.03
52653;BME280;39353;42.864;12.014;2023-07-13T13:35:50;97482.67;;;30.10;52.09
52653;BME280;39353;42.864;12.014;2023-07-13T13:38:26;97476.08;;;30.11;52.03
52653;BME280;39353;42.864;12.014;2023-07-13T13:41:10;97472.98;;;30.12;51.82
52653;BME280;39353;42.864;12.014;2023-07-13T13:43:52;97470.61;;;30.10;51.84
52653;BME280;39353;42.864;12.014;2023-07-13T13:46:35;97473.88;;;30.11;52.04
52653;BME280;39353;42.864;12.014;2023-07-13T13:49:03;97474.86;;;30.14;52.06
52653;BME280;39353;42.864;12.014;2023-07-13T13:51:45;97474.70;;;30.11;52.15
52653;BME280;39353;42.864;12.014;2023-07-13T13:54:15;97473.59;;;30.10;52.60
52653;BME280;39353;42.864;12.014;2023-07-13T13:56:45;97473.77;;;30.10;52.97
52653;BME280;39353;42.864;12.014;2023-07-13T13:59:13;97476.55;;;30.08;52.87
52653;BME280;39353;42.864;12.014;2023-07-13T14:01:55;97480.23;;;30.12;52.55
52653;BME280;39353;42.864;12.014;2023-07-13T14:04:40;97478.28;;;30.12;52.59
52653;BME280;39353;42.864;12.014;2023-07-13T14:07:13;97476.08;;;30.12;52.43
52653;BME280;39353;42.864;12.014;2023-07-13T14:09:43;97476.55;;;30.10;52.31
52653;BME280;39353;42.864;12.014;2023-07-13T14:12:26;97473.77;;;30.08;52.32
52653;BME280;39353;42.864;12.014;2023-07-13T14:14:57;97472.02;;;30.08;52.39
52653;BME280;39353;42.864;12.014;2023-07-13T14:17:39;97471.66;;;30.11;52.38
52653;BME280;39353;42.864;12.014;2023-07-13T14:20:22;97472.71;;;30.09;52.73
52653;BME280;39353;42.864;12.014;2023-07-13T14:23:04;97470.77;;;30.06;52.97
52653;BME280;39353;42.864;12.014;2023-07-13T14:25:46;97468.99;;;30.11;52.80
52653;BME280;39353;42.864;12.014;2023-07-13T14:28:28;97467.54;;;30.14;52.61
52653;BME280;39353;42.864;12.014;2023-07-13T14:31:14;97467.39;;;30.19;52.36
52653;BME280;39353;42.864;12.014;2023-07-13T14:33:44;97463.80;;;30.28;52.14
52653;BME280;39353;42.864;12.014;2023-07-13T14:36:21;97464.84;;;30.27;52.15